Time;durP1;ratioP1;P1;durP2;ratioP2;P2;SDS_P1;SDS_P2;PMS_P1;PMS_P2;Temp;Humidity;BMP_temperature;BMP_pressure;BME280_temperature;BME280_humidity;BME280_pressure;Samples;Min_cycle;Max_cycle;Signal;HPM_P1;HPM_P2
2024/01/03 00:01:33;;;;;;;2.60;1.52;;;11.40;62.00;;;8.64;100.00;98621.53;4964984;28;20070;-80
2024/01/03 00:04:01;;;;;;;2.72;1.70;;;10.30;77.60;;;8.92;100.00;98692.91;4950577;28;20049;-81
2024/01/03 00:06:33;;;;;;;2.38;1.65;;;10.20;76.00;;;8.22;100.00;98588.38;4971281;28;20417;-81
2024/01/03 00:09:02;;;;;;;3.25;2.10;;;10.10;80.60;;;8.23;100.00;98606.66;4987399;28;20122;-82
2024/01/03 00:11:32;;;;;;;4.50;2.40;;;10.80;90.20;;;8.37;100.00;98639.31;4982863;28;20649;-81
2024/01/03 00:14:07;;;;;;;5.53;2.50;;;9.90;90.00;;;8.29;100.00;98634.38;4992329;28;20293;-81
2024/01/03 00:16:38;;;;;;;5.25;2.53;;;9.90;89.10;;;8.14;100.00;98612.28;4992277;28;20046;-82
2024/01/03 00:19:14;;;;;;;2.60;1.63;;;9.90;89.40;;;8.19;100.00;98638.31;4990123;28;20050;-82
2024/01/03 00:21:44;;;;;;;2.25;1.85;;;9.80;91.70;;;8.17;100.00;98661.94;4970718;28;20065;-81
2024/01/03 00:24:17;;;;;;;2.85;2.00;;;9.80;92.70;;;8.05;100.00;98629.25;4983822;28;20069;-81
2024/01/03 00:26:44;;;;;;;3.90;1.88;;;10.60;91.60;;;8.09;100.00;98629.97;4964113;28;20145;-81
2024/01/03 00:29:53;;;;;;;2.13;1.92;;;9.70;86.70;;;8.53;100.00;98712.91;4971397;28;20046;-82
2024/01/03 00:32:23;;;;;;;1.43;1.33;;;9.70;83.20;;;8.27;100.00;98683.34;4980001;28;20051;-81
2024/01/03 00:34:52;;;;;;;2.17;1.65;;;9.70;84.00;;;8.40;100.00;98703.81;4971474;28;20039;-82
2024/01/03 00:37:29;;;;;;;1.23;1.13;;;10.10;86.60;;;8.35;100.00;98686.53;4964185;28;20050;-82
2024/01/03 00:39:58;;;;;;;1.45;1.10;;;9.60;86.20;;;8.13;100.00;98665.59;4969221;28;20049;-82
2024/01/03 00:42:25;;;;;;;1.17;1.08;;;9.50;90.20;;;7.78;100.00;98639.94;4964592;28;20042;-81
2024/01/03 00:44:52;;;;;;;1.52;1.13;;;9.40;90.40;;;8.25;100.00;98714.00;4973652;28;20398;-81
2024/01/03 00:47:22;;;;;;;1.88;1.58;;;9.40;91.10;;;7.72;100.00;98615.75;4990790;28;20061;-81
2024/01/03 00:49:50;;;;;;;1.88;1.30;;;9.40;91.90;;;8.01;100.00;98666.09;4991269;28;20038;-81
2024/01/03 00:52:20;;;;;;;3.30;1.50;;;9.40;92.10;;;7.63;100.00;98607.38;4991012;28;20121;-82
2024/01/03 00:54:48;;;;;;;2.15;1.25;;;9.30;92.20;;;7.79;100.00;98651.28;4971184;28;20105;-81
2024/01/03 00:57:15;;;;;;;3.10;1.50;;;9.40;93.20;;;7.82;100.00;98648.53;4954936;28;20157;-81
2024/01/03 00:59:45;;;;;;;2.95;1.80;;;9.50;92.70;;;7.82;100.00;98663.41;4943317;28;20041;-82
2024/01/03 01:02:13;;;;;;;5.13;2.00;;;10.20;92.40;;;7.82;100.00;98635.44;4991179;28;20058;-81
2024/01/03 01:04:41;;;;;;;4.57;1.90;;;9.50;92.00;;;7.92;100.00;98656.84;4983250;28;20073;-82
2024/01/03 01:07:09;;;;;;;5.18;1.88;;;9.60;90.80;;;7.94;100.00;98647.16;4990845;28;20050;-82
2024/01/03 01:09:36;;;;;;;4.93;2.10;;;9.50;91.70;;;8.15;100.00;98682.09;4990802;28;20042;-82
2024/01/03 01:12:04;;;;;;;3.92;1.85;;;9.50;90.80;;;8.18;100.00;98692.44;4984100;28;20047;-82
2024/01/03 01:14:31;;;;;;;5.05;1.83;;;9.50;90.60;;;7.89;100.00;98641.28;4981686;28;20814;-81
2024/01/03 01:16:58;;;;;;;5.65;2.42;;;10.70;90.40;;;8.01;100.00;98659.09;4973660;28;20100;-82
2024/01/03 01:19:25;;;;;;;4.95;1.90;;;9.80;86.90;;;8.26;100.00;98710.47;4988727;28;20038;-81
2024/01/03 01:21:53;;;;;;;6.60;2.13;;;8.70;85.10;;;8.20;100.00;98688.03;4990218;28;20382;-81
2024/01/03 01:24:20;;;;;;;6.45;2.53;;;10.90;83.40;;;7.92;100.00;98628.03;4981980;28;20050;-81
2024/01/03 01:26:47;;;;;;;7.82;2.10;;;9.60;82.90;;;7.77;100.00;98619.91;4982505;28;20046;-82
2024/01/03 01:29:17;;;;;;;6.05;2.10;;;10.30;79.80;;;8.28;100.00;98681.59;4967001;28;20074;-82
2024/01/03 01:31:45;;;;;;;6.03;2.20;;;9.80;79.80;;;8.31;100.00;98695.44;4967086;28;20097;-80
2024/01/03 01:34:12;;;;;;;5.65;1.92;;;11.00;76.60;;;8.77;100.00;98747.72;4970827;28;20055;-81
2024/01/03 01:36:40;;;;;;;9.80;2.20;;;9.90;72.20;;;8.46;100.00;98680.81;4958732;28;20042;-81
2024/01/03 01:39:07;;;;;;;4.03;1.77;;;10.40;67.40;;;8.34;100.00;98660.38;4960181;28;20074;-81
2024/01/03 01:41:34;;;;;;;7.28;2.17;;;11.00;69.50;;;8.49;100.00;98682.47;4956183;28;20070;-81
2024/01/03 01:44:01;;;;;;;4.60;2.35;;;10.00;57.00;;;8.42;100.00;98674.03;4974897;28;20125;-81
2024/01/03 01:46:28;;;;;;;14.18;3.00;;;10.10;55.70;;;8.47;100.00;98665.97;4973447;28;20043;-81
2024/01/03 01:48:56;;;;;;;9.80;4.00;;;10.10;52.80;;;8.49;100.00;98672.81;4975573;28;20129;-81
2024/01/03 01:51:23;;;;;;;4.63;1.85;;;10.30;50.00;;;8.46;100.00;98664.25;4975571;28;20047;-81
2024/01/03 01:53:51;;;;;;;6.20;2.60;;;10.30;45.50;;;8.34;100.00;98629.78;4991276;28;20117;-82
2024/01/03 01:56:20;;;;;;;8.75;2.20;;;11.50;39.50;;;8.54;100.00;98670.03;4957986;28;20049;-82
2024/01/03 01:58:50;;;;;;;5.85;2.03;;;11.50;48.40;;;8.54;100.00;98650.84;4993462;28;20109;-81
2024/01/03 02:01:19;;;;;;;4.85;2.45;;;10.20;49.00;;;8.67;100.00;98691.38;4977830;28;20073;-80
2024/01/03 02:03:50;;;;;;;6.88;2.60;;;11.30;49.50;;;8.38;100.00;98641.00;4950616;28;20192;-81
2024/01/03 02:06:19;;;;;;;4.75;2.00;;;10.00;44.00;;;9.13;100.00;98777.69;4983803;28;20117;-82
2024/01/03 02:08:46;;;;;;;7.63;2.03;;;10.30;26.90;;;8.86;100.00;98690.56;4953066;28;20132;-82
2024/01/03 02:11:14;;;;;;;7.97;1.88;;;10.10;42.20;;;8.71;100.00;98668.47;4992514;28;20051;-82
2024/01/03 02:13:44;;;;;;;6.72;2.30;;;10.80;32.60;;;8.67;100.00;98651.16;4968787;28;20053;-81
2024/01/03 02:16:11;;;;;;;5.70;1.77;;;10.30;35.00;;;8.85;100.00;98665.25;4989176;28;20066;-81
2024/01/03 02:18:44;;;;;;;6.63;1.92;;;11.70;24.30;;;8.71;100.00;98650.97;4996149;28;20042;-81
2024/01/03 02:21:16;;;;;;;6.93;2.50;;;10.40;28.40;;;8.39;100.00;98637.47;4991054;28;20071;-82
2024/01/03 02:23:44;;;;;;;6.38;2.03;;;11.30;32.60;;;8.80;100.00;98668.91;4982595;28;20050;-82
2024/01/03 02:26:12;;;;;;;6.15;1.70;;;11.50;23.30;;;9.15;100.00;98743.50;4957242;28;20050;-82
2024/01/03 02:28:55;;;;;;;5.25;1.92;;;10.50;20.70;;;9.23;100.00;98709.91;4969252;28;20061;-81
2024/01/03 02:31:22;;;;;;;7.47;1.92;;;10.50;16.20;;;9.03;100.00;98689.78;4984098;28;20058;-81
2024/01/03 02:33:49;;;;;;;4.53;1.75;;;10.60;20.90;;;9.06;100.00;98697.56;4976154;28;20050;-82
2024/01/03 02:36:16;;;;;;;4.55;1.80;;;11.50;8.90;;;9.05;100.00;98687.94;4964472;28;20073;-81
2024/01/03 02:38:53;;;;;;;6.57;1.90;;;11.50;13.80;;;8.82;100.00;98653.13;5002644;28;20051;-82
2024/01/03 02:41:20;;;;;;;7.00;1.63;;;10.50;8.50;;;8.73;100.00;98645.66;5002267;28;20064;-82
2024/01/03 02:43:48;;;;;;;3.72;1.88;;;10.60;10.30;;;8.88;100.00;98683.47;4981705;28;20046;-82
2024/01/03 02:46:19;;;;;;;5.18;1.85;;;10.50;9.90;;;8.73;100.00;98640.41;4989508;28;20059;-81
2024/01/03 02:48:49;;;;;;;3.92;2.28;;;10.50;38.30;;;8.89;100.00;98693.03;4983691;28;20044;-83
2024/01/03 02:51:19;;;;;;;6.85;2.10;;;11.20;57.00;;;8.97;100.00;98708.44;4980449;28;20105;-81
2024/01/03 02:53:46;;;;;;;4.17;1.90;;;11.40;48.10;;;8.73;100.00;98682.34;4984495;28;20043;-82
2024/01/03 02:56:14;;;;;;;4.07;2.05;;;11.00;63.80;;;8.84;100.00;98722.09;5008572;28;20050;-81
2024/01/03 02:58:42;;;;;;;8.20;2.10;;;10.30;72.80;;;8.55;100.00;98655.19;4980881;28;20042;-81
2024/01/03 03:01:09;;;;;;;4.13;1.70;;;10.50;54.90;;;9.05;100.00;98736.03;4973810;28;20601;-82
2024/01/03 03:03:37;;;;;;;8.27;1.98;;;10.60;61.40;;;8.51;100.00;98654.44;4979089;28;20066;-81
2024/01/03 03:06:04;;;;;;;5.80;2.15;;;10.80;54.50;;;9.08;100.00;98735.91;4982420;28;20062;-81
2024/01/03 03:08:32;;;;;;;4.22;1.73;;;10.30;49.40;;;8.92;100.00;98719.13;4986891;28;20063;-82
2024/01/03 03:10:59;;;;;;;3.28;1.90;;;11.30;48.90;;;8.98;100.00;98746.88;4981643;28;20809;-80
2024/01/03 03:13:27;;;;;;;5.40;2.10;;;10.30;39.70;;;9.20;100.00;98752.84;4980599;28;20050;-81
2024/01/03 03:15:54;;;;;;;4.90;1.50;;;10.40;30.20;;;9.13;100.00;98737.47;4962302;28;20596;-80
2024/01/03 03:18:21;;;;;;;4.45;1.55;;;11.20;30.00;;;9.17;100.00;98737.25;4994900;28;20121;-82
2024/01/03 03:20:49;;;;;;;6.00;1.60;;;10.80;26.70;;;9.21;100.00;98737.97;4986619;28;20059;-81
2024/01/03 03:23:16;;;;;;;4.20;1.75;;;10.40;27.90;;;8.98;100.00;98718.88;4993850;28;20042;-81
2024/01/03 03:25:43;;;;;;;3.47;1.67;;;12.00;17.50;;;8.83;100.00;98688.06;4955336;28;20050;-82
2024/01/03 03:28:10;;;;;;;6.60;1.77;;;10.50;20.40;;;8.85;100.00;98687.06;4974984;28;20065;-81
2024/01/03 03:30:38;;;;;;;3.05;2.03;;;11.00;21.10;;;9.29;100.00;98741.13;4983103;28;20050;-80
2024/01/03 03:33:05;;;;;;;3.60;1.45;;;11.20;23.80;;;9.22;100.00;98727.44;4977935;28;20047;-82
2024/01/03 03:35:35;;;;;;;3.65;2.00;;;11.00;13.50;;;8.87;100.00;98671.28;4982418;28;20081;-81
2024/01/03 03:38:03;;;;;;;5.40;1.52;;;10.50;6.90;;;8.96;100.00;98686.59;4984457;28;20078;-82
2024/01/03 03:40:30;;;;;;;5.82;1.85;;;10.50;6.20;;;8.92;100.00;98671.91;4990552;28;20066;-83
2024/01/03 03:42:58;;;;;;;5.40;1.92;;;11.40;6.20;;;8.90;100.00;98681.63;4977315;28;20046;-81
2024/01/03 03:45:25;;;;;;;4.72;1.77;;;10.50;5.20;;;8.73;100.00;98645.66;4983308;28;20054;-82
2024/01/03 03:47:52;;;;;;;4.82;1.45;;;11.50;8.00;;;9.26;100.00;98743.03;4995559;28;20042;-82
2024/01/03 03:50:19;;;;;;;5.15;2.05;;;10.60;12.50;;;9.23;100.00;98723.03;4966367;28;20126;-80
2024/01/03 03:52:47;;;;;;;5.50;2.10;;;10.60;18.10;;;9.22;100.00;98730.06;4981800;28;20061;-81
2024/01/03 03:55:15;;;;;;;4.30;1.90;;;10.50;30.10;;;8.67;100.00;98644.16;4958665;28;20057;-81
2024/01/03 03:57:42;;;;;;;7.78;1.80;;;10.50;43.10;;;9.18;100.00;98743.38;4985436;28;20053;-82
2024/01/03 04:00:11;;;;;;;4.75;1.70;;;10.30;43.50;;;9.31;100.00;98756.78;4985905;28;20422;-82
2024/01/03 04:02:40;;;;;;;5.85;1.80;;;10.40;51.70;;;9.11;100.00;98739.31;4993783;28;20065;-83
2024/01/03 04:05:11;;;;;;;3.55;2.05;;;10.70;44.00;;;8.88;100.00;98705.28;4984873;28;20271;-82
2024/01/03 04:07:38;;;;;;;5.95;1.92;;;10.40;41.70;;;9.03;100.00;98732.63;4977466;28;20043;-83
2024/01/03 04:10:08;;;;;;;7.10;1.58;;;11.10;30.40;;;9.13;100.00;98743.56;5002581;28;20062;-82
2024/01/03 04:12:37;;;;;;;2.78;1.48;;;10.40;27.10;;;8.91;100.00;98699.94;4986553;28;20043;-83
2024/01/03 04:15:05;;;;;;;7.93;2.30;;;10.40;28.00;;;9.05;100.00;98729.94;4986519;28;20050;-82
2024/01/03 04:17:33;;;;;;;5.35;2.30;;;10.50;23.20;;;8.98;100.00;98712.75;4986130;28;20060;-81
2024/01/03 04:20:00;;;;;;;7.78;2.00;;;10.50;35.20;;;8.63;100.00;98658.31;4985432;28;20105;-81
2024/01/03 04:22:27;;;;;;;7.10;2.67;;;10.40;24.70;;;8.94;100.00;98730.41;4985450;28;20061;-81
2024/01/03 04:24:57;;;;;;;8.00;2.13;;;10.40;15.70;;;8.85;100.00;98712.47;5001247;28;20048;-82
2024/01/03 04:27:25;;;;;;;6.50;2.03;;;11.10;10.60;;;8.80;100.00;98705.63;5001728;28;20046;-82
2024/01/03 04:29:52;;;;;;;4.90;1.80;;;10.50;1.00;;;8.86;100.00;98687.94;4958800;28;20139;-82
2024/01/03 04:32:19;;;;;;;9.63;2.35;;;10.50;1.00;;;9.10;100.00;98713.97;5007136;28;20056;-81
2024/01/03 04:34:46;;;;;;;5.35;2.13;;;10.60;1.00;;;8.82;100.00;98673.22;5002394;28;20102;-81
2024/01/03 04:37:13;;;;;;;7.30;2.20;;;10.70;1.00;;;9.14;100.00;98708.53;5002283;28;20042;-82
2024/01/03 04:39:41;;;;;;;13.13;3.22;;;10.70;1.00;;;9.13;100.00;98713.84;4986020;28;20038;-82
2024/01/03 04:42:08;;;;;;;7.28;2.50;;;11.20;1.00;;;9.28;100.00;98717.56;4982574;28;20043;-82
2024/01/03 04:44:36;;;;;;;5.35;1.85;;;11.60;1.00;;;8.87;100.00;98626.69;4982663;28;20042;-81
2024/01/03 04:47:04;;;;;;;5.25;1.88;;;11.20;1.00;;;9.01;100.00;98673.28;4979123;28;20061;-83
2024/01/03 04:49:31;;;;;;;6.57;2.33;;;10.80;1.00;;;9.13;100.00;98680.59;4983872;28;20051;-82
2024/01/03 04:51:58;;;;;;;9.07;2.03;;;10.80;1.00;;;9.01;100.00;98682.00;5002153;28;20046;-81
2024/01/03 04:54:25;;;;;;;9.60;2.75;;;10.80;1.00;;;9.17;100.00;98710.19;4986038;28;20081;-81
2024/01/03 04:56:52;;;;;;;8.10;2.20;;;10.80;1.00;;;9.16;100.00;98719.81;5001470;28;20048;-82
2024/01/03 04:59:20;;;;;;;5.88;2.10;;;12.00;1.00;;;9.55;100.00;98777.63;4985997;28;20085;-81
2024/01/03 05:01:47;;;;;;;6.10;1.77;;;10.80;1.00;;;9.42;100.00;98732.69;4976102;28;20050;-82
2024/01/03 05:04:14;;;;;;;11.15;2.15;;;10.70;1.00;;;9.21;100.00;98709.13;4978645;28;20064;-81
2024/01/03 05:06:42;;;;;;;7.00;2.30;;;11.00;1.00;;;9.19;100.00;98714.41;5003125;28;20301;-81
2024/01/03 05:09:09;;;;;;;8.60;2.67;;;11.50;1.00;;;9.56;100.00;98774.91;4998431;28;20053;-82
2024/01/03 05:11:36;;;;;;;7.63;2.13;;;11.00;1.00;;;8.66;100.00;98655.53;4977724;28;20461;-81
2024/01/03 05:14:04;;;;;;;5.85;2.30;;;11.40;1.00;;;9.03;100.00;98709.03;4971951;28;20244;-83
2024/01/03 05:16:31;;;;;;;5.65;1.52;;;10.70;1.00;;;9.17;100.00;98733.81;4977310;28;20081;-81
2024/01/03 05:18:58;;;;;;;9.80;2.85;;;11.70;1.00;;;9.18;100.00;98733.72;4972110;28;20042;-82
2024/01/03 05:21:25;;;;;;;18.77;4.07;;;9.60;1.00;;;9.26;100.00;98730.75;4965546;28;20046;-80
2024/01/03 05:23:53;;;;;;;6.13;2.22;;;10.70;1.00;;;9.35;100.00;98760.97;4963858;28;20088;-81
2024/01/03 05:26:20;;;;;;;6.07;2.33;;;11.40;1.00;;;9.07;100.00;98731.56;4992643;28;20054;-81
2024/01/03 05:28:47;;;;;;;7.65;2.00;;;11.80;1.00;;;9.39;100.00;98759.06;4968899;28;20050;-80
2024/01/03 05:31:15;;;;;;;11.73;3.25;;;10.70;1.00;;;8.96;100.00;98704.13;4977089;28;20050;-81
2024/01/03 05:33:42;;;;;;;7.13;2.55;;;11.30;1.00;;;8.95;100.00;98711.13;4972307;28;20035;-80
2024/01/03 05:36:10;;;;;;;9.65;2.17;;;10.60;1.00;;;9.03;100.00;98714.28;4969733;28;20054;-80
2024/01/03 05:38:37;;;;;;;7.82;2.30;;;10.80;1.00;;;8.85;100.00;98683.59;4983171;28;20038;-80
2024/01/03 05:41:05;;;;;;;9.27;2.97;;;11.10;1.00;;;8.77;100.00;98684.78;4983054;28;20042;-80
2024/01/03 05:43:35;;;;;;;5.88;2.50;;;10.60;1.00;;;8.94;100.00;98715.53;4975392;28;20419;-80
2024/01/03 05:46:03;;;;;;;6.03;2.47;;;11.50;1.00;;;8.56;100.00;98656.88;4974681;28;20485;-81
2024/01/03 05:48:30;;;;;;;10.18;2.33;;;10.60;1.00;;;8.87;100.00;98726.34;4967041;28;20070;-81
2024/01/03 05:50:58;;;;;;;7.72;1.92;;;11.60;1.00;;;9.28;100.00;98768.28;4974789;28;20069;-80
2024/01/03 05:53:25;;;;;;;5.90;2.83;;;11.60;1.00;;;9.02;100.00;98711.69;4958114;28;20081;-82
2024/01/03 05:55:52;;;;;;;10.85;2.70;;;10.60;1.00;;;8.94;100.00;98722.53;4979333;28;20138;-80
2024/01/03 05:58:22;;;;;;;7.43;2.55;;;10.90;1.00;;;8.93;100.00;98708.59;4987323;28;20042;-81
2024/01/03 06:00:49;;;;;;;10.80;2.55;;;10.70;1.00;;;9.56;100.00;98785.41;4962402;28;20063;-81
2024/01/03 06:03:17;;;;;;;5.30;1.55;;;10.70;1.00;;;9.01;100.00;98704.75;4961852;28;20056;-80
2024/01/03 06:05:44;;;;;;;7.05;2.53;;;10.90;1.00;;;8.73;100.00;98659.63;4969106;28;20072;-81
2024/01/03 06:08:12;;;;;;;6.40;1.92;;;10.90;1.00;;;9.18;100.00;98741.59;4959117;28;20051;-82
2024/01/03 06:10:39;;;;;;;5.38;1.92;;;9.70;1.00;;;9.12;100.00;98744.50;4972018;28;20046;-81
2024/01/03 06:13:07;;;;;;;8.88;2.90;;;11.20;1.00;;;8.86;100.00;98690.56;4966296;28;20055;-82
2024/01/03 06:15:34;;;;;;;6.50;1.67;;;11.00;1.00;;;9.43;100.00;98781.63;4972877;28;20548;-81
2024/01/03 06:18:01;;;;;;;8.25;1.63;;;11.20;1.00;;;9.31;100.00;98762.91;4988416;28;20047;-82
2024/01/03 06:20:29;;;;;;;3.97;1.48;;;11.40;1.00;;;8.95;100.00;98724.22;4979938;28;20051;-80
2024/01/03 06:22:59;;;;;;;;;;;10.50;1.00;;;8.47;100.00;98679.06;4954584;28;20052;-82
2024/01/03 06:25:26;;;;;;;4.50;1.63;;;10.50;1.00;;;9.24;100.00;98792.94;4974242;28;19921;-82
2024/01/03 06:27:53;;;;;;;7.03;2.15;;;11.00;1.00;;;8.79;100.00;98711.78;4952240;28;20043;-80
2024/01/03 06:30:20;;;;;;;3.95;1.35;;;10.40;1.00;;;8.71;100.00;98708.66;4975310;28;20046;-84
2024/01/03 06:32:51;;;;;;;4.78;2.97;;;11.20;1.00;;;8.88;100.00;98734.13;4954997;28;20049;-81
2024/01/03 06:35:19;;;;;;;6.18;1.83;;;10.70;1.00;;;8.74;100.00;98719.00;4990915;28;20165;-80
2024/01/03 06:37:46;;;;;;;7.70;1.90;;;10.30;1.00;;;8.40;100.00;98665.38;4954882;28;20422;-81
2024/01/03 06:40:16;;;;;;;4.15;2.03;;;10.30;1.00;;;8.63;100.00;98705.50;4970883;28;20386;-82
2024/01/03 06:42:43;;;;;;;;;;;10.30;1.00;;;8.88;100.00;98767.41;4956305;28;20047;-81
2024/01/03 06:45:11;;;;;;;8.00;2.22;;;10.30;1.00;;;8.62;100.00;98709.91;4969424;28;19932;-82
2024/01/03 06:47:40;;;;;;;7.30;2.10;;;10.20;1.00;;;8.44;100.00;98695.78;4970080;28;20054;-80
2024/01/03 06:50:07;;;;;;;7.05;2.20;;;10.90;1.00;;;8.80;100.00;98741.50;4982140;28;20051;-80
2024/01/03 06:52:35;;;;;;;6.47;2.30;;;10.30;1.00;;;8.76;100.00;98729.44;4974205;28;20054;-81
2024/01/03 06:55:02;;;;;;;7.20;2.55;;;11.20;1.00;;;8.76;100.00;98727.66;4974887;28;20050;-81
2024/01/03 06:57:29;;;;;;;8.32;2.10;;;10.40;1.00;;;8.85;100.00;98742.16;4976275;28;20049;-82
2024/01/03 06:59:56;;;;;;;7.15;2.33;;;11.20;1.00;;;8.90;100.00;98724.47;4969392;28;20050;-83
2024/01/03 07:02:24;;;;;;;5.78;1.95;;;11.50;1.00;;;9.01;100.00;98729.22;4952463;28;20058;-80
2024/01/03 07:04:52;;;;;;;7.15;1.88;;;10.60;1.00;;;8.94;100.00;98712.91;4973715;28;20113;-84
2024/01/03 07:07:19;;;;;;;6.65;2.33;;;10.50;1.00;;;9.02;100.00;98728.31;4993934;28;20089;-83
2024/01/03 07:09:47;;;;;;;11.98;2.53;;;11.20;1.00;;;9.31;100.00;98762.03;4997390;28;20054;-81
2024/01/03 07:12:18;;;;;;;9.90;2.53;;;11.00;1.00;;;9.00;100.00;98709.16;4990231;28;20298;-81
2024/01/03 07:14:46;;;;;;;8.52;2.45;;;11.80;1.00;;;9.01;100.00;98718.75;4977224;28;20448;-80
2024/01/03 07:17:15;;;;;;;6.65;2.30;;;10.60;1.00;;;8.87;100.00;98687.00;4997514;28;20035;-81
2024/01/03 07:19:42;;;;;;;11.40;2.23;;;10.60;1.00;;;9.10;100.00;98741.09;5000572;28;20347;-81
2024/01/03 07:22:10;;;;;;;7.13;2.10;;;11.10;1.00;;;9.37;100.00;98756.53;4985202;28;20109;-81
2024/01/03 07:24:38;;;;;;;10.20;2.47;;;10.70;1.00;;;9.24;100.00;98735.22;4973544;28;20061;-82
2024/01/03 07:27:06;;;;;;;7.43;2.80;;;10.90;1.00;;;9.44;100.00;98757.09;4972653;28;20051;-82
2024/01/03 07:29:33;;;;;;;8.32;2.15;;;11.50;1.00;;;8.94;100.00;98680.56;4993002;28;20082;-82
2024/01/03 07:32:00;;;;;;;7.70;2.10;;;10.80;1.00;;;9.31;100.00;98728.78;4981941;28;20536;-81
2024/01/03 07:34:28;;;;;;;11.07;2.85;;;11.30;1.00;;;8.83;100.00;98643.50;4994533;28;20072;-82
2024/01/03 07:36:55;;;;;;;7.72;2.67;;;11.20;1.00;;;9.11;100.00;98695.56;4996955;28;20042;-80
2024/01/03 07:39:23;;;;;;;6.93;3.08;;;11.40;1.00;;;9.16;100.00;98703.22;4997482;28;20125;-83
2024/01/03 07:41:51;;;;;;;8.95;2.38;;;11.70;1.00;;;9.58;100.00;98788.81;4977277;28;20034;-82
2024/01/03 07:44:18;;;;;;;7.45;2.55;;;11.60;1.00;;;9.45;100.00;98738.66;4977897;28;20050;-81
2024/01/03 07:46:45;;;;;;;7.05;2.10;;;11.50;1.00;;;9.45;100.00;98730.78;4974121;28;20134;-83
2024/01/03 07:49:13;;;;;;;11.68;3.22;;;11.40;1.00;;;9.71;100.00;98760.25;4988910;28;20054;-82
2024/01/03 07:51:40;;;;;;;8.07;2.20;;;11.80;1.00;;;9.50;100.00;98751.56;4977953;28;20158;-81
2024/01/03 07:54:09;;;;;;;5.53;1.92;;;11.00;1.00;;;9.18;100.00;98683.84;4990792;28;20141;-80
2024/01/03 07:56:36;;;;;;;7.95;1.90;;;10.10;1.00;;;9.28;100.00;98694.78;4991079;28;20054;-81
2024/01/03 07:59:04;;;;;;;5.95;3.20;;;10.90;1.00;;;9.51;100.00;98727.03;4980407;28;20422;-81
2024/01/03 08:01:31;;;;;;;7.20;2.33;;;11.50;1.00;;;9.47;100.00;98700.03;4984021;28;20047;-81
2024/01/03 08:03:59;;;;;;;10.52;2.88;;;11.40;1.00;;;9.74;100.00;98741.72;4973724;28;20065;-83
2024/01/03 08:06:26;;;;;;;6.93;2.50;;;11.50;1.00;;;9.60;100.00;98723.97;4974430;28;20047;-81
2024/01/03 08:08:53;;;;;;;4.15;1.83;;;11.10;1.00;;;9.56;100.00;98714.53;4993326;28;20042;-80
2024/01/03 08:11:21;;;;;;;9.35;2.83;;;11.10;1.00;;;9.47;100.00;98723.69;4985384;28;20070;-80
2024/01/03 08:13:48;;;;;;;7.38;1.90;;;11.70;1.00;;;9.59;100.00;98738.00;4982824;28;20039;-82
2024/01/03 08:16:16;;;;;;;5.80;2.33;;;11.00;1.00;;;9.20;100.00;98683.81;4973789;28;20056;-83
2024/01/03 08:18:44;;;;;;;8.45;2.33;;;12.40;1.00;;;9.41;100.00;98712.59;4993443;28;20093;-82
2024/01/03 08:21:13;;;;;;;8.45;3.65;;;11.00;1.00;;;9.19;100.00;98685.56;4990866;28;20046;-81
2024/01/03 08:23:42;;;;;;;7.60;3.08;;;11.20;1.00;;;9.21;100.00;98696.00;4992017;28;20058;-83
2024/01/03 08:26:10;;;;;;;4.80;2.08;;;11.00;1.00;;;9.32;100.00;98725.25;4948816;28;20046;-81
2024/01/03 08:28:41;;;;;;;9.93;3.20;;;10.90;1.00;;;9.08;100.00;98687.84;4977070;28;20568;-82
2024/01/03 08:31:17;;;;;;;11.57;2.85;;;11.20;3.80;;;9.10;100.00;98711.38;4977227;28;20141;-81
2024/01/03 08:33:46;;;;;;;6.28;2.40;;;12.00;15.60;;;8.99;100.00;98704.84;4976951;28;20045;-80
2024/01/03 08:36:15;;;;;;;6.68;2.78;;;10.70;28.40;;;8.55;100.00;98674.38;4989825;28;20101;-82
2024/01/03 08:38:42;;;;;;;10.13;1.77;;;11.50;28.10;;;9.12;100.00;98769.88;4992462;28;20149;-80
2024/01/03 08:41:18;;;;;;;16.35;8.07;;;10.90;25.50;;;8.71;100.00;98702.53;4976961;28;20051;-82
2024/01/03 08:43:46;;;;;;;6.75;3.08;;;9.80;38.30;;;8.71;100.00;98695.53;4976707;28;20057;-81
2024/01/03 08:46:14;;;;;;;8.65;2.28;;;10.50;36.90;;;9.08;100.00;98756.88;4970193;28;20105;-80
2024/01/03 08:48:42;;;;;;;11.02;2.88;;;10.50;22.80;;;8.75;100.00;98701.53;4983680;28;20054;-80
2024/01/03 08:51:17;;;;;;;7.13;2.50;;;11.20;23.30;;;8.83;100.00;98711.69;4974111;28;20038;-83
2024/01/03 08:53:45;;;;;;;42.42;29.58;;;10.70;30.00;;;8.36;100.00;98627.94;4994773;28;20048;-84
2024/01/03 08:56:14;;;;;;;8.73;4.15;;;10.50;36.50;;;8.64;100.00;98681.84;4979223;28;20057;-83
2024/01/03 08:58:46;;;;;;;6.97;2.30;;;10.50;27.30;;;8.82;100.00;98713.44;4989083;28;20061;-82
2024/01/03 09:01:21;;;;;;;7.65;2.22;;;10.50;20.50;;;8.53;100.00;98678.00;4981343;28;20319;-82
2024/01/03 09:03:50;;;;;;;6.20;1.88;;;10.40;27.60;;;8.57;100.00;98687.41;4972557;28;20066;-83
2024/01/03 09:06:20;;;;;;;8.48;2.72;;;11.50;19.30;;;9.03;100.00;98740.50;4991337;28;20050;-82
2024/01/03 09:08:51;;;;;;;5.43;1.80;;;10.60;10.10;;;8.88;100.00;98696.59;4976516;28;20221;-80
2024/01/03 09:11:27;;;;;;;7.00;3.15;;;11.30;3.00;;;9.12;100.00;98726.13;4999986;28;20053;-82
2024/01/03 09:13:56;;;;;;;4.50;2.40;;;10.70;1.00;;;8.93;100.00;98699.84;4985314;28;20042;-83
2024/01/03 09:16:30;;;;;;;6.82;1.98;;;12.00;1.00;;;9.39;100.00;98753.81;5001456;28;20042;-84
2024/01/03 09:18:58;;;;;;;3.42;1.98;;;10.80;1.00;;;9.46;100.00;98756.09;4980263;28;20047;-84
2024/01/03 09:21:30;;;;;;;4.50;1.92;;;10.90;1.00;;;9.83;100.00;98816.59;4967632;28;20050;-83
2024/01/03 09:23:59;;;;;;;4.70;2.15;;;10.90;1.00;;;9.30;100.00;98718.34;4977539;28;20466;-84
2024/01/03 09:26:26;;;;;;;5.50;1.92;;;11.20;1.00;;;8.96;100.00;98678.72;4977934;28;20089;-84
2024/01/03 09:28:54;;;;;;;3.75;1.80;;;10.80;1.00;;;9.08;100.00;98711.44;4996302;28;20053;-81
2024/01/03 09:31:21;;;;;;;6.75;2.00;;;11.10;1.00;;;9.12;100.00;98696.41;4981754;28;20065;-82
2024/01/03 09:33:48;;;;;;;6.32;2.20;;;10.90;14.30;;;9.00;100.00;98729.28;4976316;28;20035;-83
2024/01/03 09:36:20;;;;;;;5.70;2.25;;;12.10;46.40;;;9.31;100.00;98809.28;4982101;28;20141;-81
2024/01/03 09:38:54;;;;;;;8.35;2.55;;;10.70;58.60;;;9.19;100.00;98795.78;4983073;28;20109;-82
2024/01/03 09:41:23;;;;;;;7.35;2.53;;;10.50;57.60;;;8.85;100.00;98770.16;4989115;28;20734;-82
2024/01/03 09:43:58;;;;;;;6.88;2.90;;;10.80;69.30;;;8.54;100.00;98719.00;4956460;28;20034;-79
2024/01/03 09:46:28;;;;;;;5.57;2.40;;;10.90;73.60;;;8.67;100.00;98748.19;4989556;28;20089;-80
2024/01/03 09:48:55;;;;;;;;;;;10.70;68.80;;;8.71;100.00;98768.09;4989736;28;20038;-79
2024/01/03 09:51:22;;;;;;;7.53;2.83;;;10.80;78.40;;;9.14;100.00;98838.91;4972766;28;19988;-81
2024/01/03 09:53:52;;;;;;;8.18;3.28;;;10.30;80.40;;;8.73;100.00;98769.75;4971805;28;20046;-81
2024/01/03 09:56:19;;;;;;;7.93;2.08;;;10.90;76.80;;;8.59;100.00;98749.38;4989823;28;20489;-80
2024/01/03 09:58:47;;;;;;;5.30;2.15;;;11.00;81.20;;;8.64;100.00;98762.25;4979366;28;20053;-82
2024/01/03 10:01:14;;;;;;;4.90;2.10;;;10.90;82.30;;;8.65;100.00;98758.72;4967594;28;20073;-78
2024/01/03 10:03:42;;;;;;;6.15;2.33;;;10.40;78.90;;;8.74;100.00;98774.06;4946706;28;20612;-80
2024/01/03 10:06:13;;;;;;;5.50;2.00;;;11.80;70.10;;;9.16;100.00;98818.69;4981276;28;20109;-82
2024/01/03 10:09:01;;;;;;;6.63;2.45;;;10.90;68.70;;;9.34;100.00;98854.63;4990985;28;20093;-79
2024/01/03 10:11:29;;;;;;;8.15;2.28;;;10.50;70.10;;;9.23;100.00;98854.22;4974741;28;20166;-83
2024/01/03 10:14:14;;;;;;;7.38;2.28;;;10.60;50.70;;;8.95;100.00;98771.44;4971052;28;20058;-82
2024/01/03 10:16:43;;;;;;;2.55;1.52;;;11.80;50.10;;;9.26;100.00;98858.50;4989663;28;20046;-81
2024/01/03 10:19:13;;;;;;;4.38;1.65;;;10.70;43.80;;;8.91;100.00;98770.75;4971371;28;20050;-81
2024/01/03 10:21:54;;;;;;;;;;;10.70;45.80;;;9.57;100.00;98892.16;4973931;28;20054;-81
2024/01/03 10:24:24;;;;;;;5.40;1.88;;;10.70;47.40;;;8.80;100.00;98778.22;4969784;28;20500;-82
2024/01/03 10:26:52;;;;;;;8.02;2.20;;;10.70;40.00;;;8.85;100.00;98770.16;4965635;28;20710;-81
2024/01/03 10:29:21;;;;;;;3.45;1.60;;;10.80;41.10;;;8.86;100.00;98777.09;4989183;28;20528;-80